sensor_id;sensor_type;location;lat;lon;timestamp;P1;durP1;ratioP1;P2;durP2;ratioP2
69253;SDS011;56364;41.816;12.448;2022-07-23T00:00:42;19.10;;;6.10;;
69253;SDS011;56364;41.816;12.448;2022-07-23T00:03:08;17.70;;;6.60;;
69253;SDS011;56364;41.816;12.448;2022-07-23T00:05:34;10.50;;;6.35;;
69253;SDS011;56364;41.816;12.448;2022-07-23T00:08:03;13.30;;;6.72;;
69253;SDS011;56364;41.816;12.448;2022-07-23T00:10:29;14.73;;;6.75;;
69253;SDS011;56364;41.816;12.448;2022-07-23T00:12:55;12.45;;;6.32;;
69253;SDS011;56364;41.816;12.448;2022-07-23T00:15:21;10.80;;;6.55;;
69253;SDS011;56364;41.816;12.448;2022-07-23T00:17:47;11.40;;;6.10;;
69253;SDS011;56364;41.816;12.448;2022-07-23T00:20:14;14.00;;;6.93;;
69253;SDS011;56364;41.816;12.448;2022-07-23T00:22:47;12.98;;;6.40;;
69253;SDS011;56364;41.816;12.448;2022-07-23T00:25:13;12.25;;;5.72;;
69253;SDS011;56364;41.816;12.448;2022-07-23T00:27:39;13.07;;;6.47;;
69253;SDS011;56364;41.816;12.448;2022-07-23T00:30:05;12.30;;;5.97;;
69253;SDS011;56364;41.816;12.448;2022-07-23T00:32:31;10.27;;;5.53;;
69253;SDS011;56364;41.816;12.448;2022-07-23T00:34:58;12.07;;;6.53;;
69253;SDS011;56364;41.816;12.448;2022-07-23T00:37:24;11.23;;;5.88;;
69253;SDS011;56364;41.816;12.448;2022-07-23T00:39:50;12.00;;;6.20;;
69253;SDS011;56364;41.816;12.448;2022-07-23T00:42:16;10.52;;;5.93;;
69253;SDS011;56364;41.816;12.448;2022-07-23T00:44:42;13.48;;;5.45;;
69253;SDS011;56364;41.816;12.448;2022-07-23T00:47:08;11.07;;;5.57;;
69253;SDS011;56364;41.816;12.448;2022-07-23T00:49:34;11.25;;;5.13;;
69253;SDS011;56364;41.816;12.448;2022-07-23T00:52:01;14.07;;;5.25;;
69253;SDS011;56364;41.816;12.448;2022-07-23T00:54:28;9.23;;;4.95;;
69253;SDS011;56364;41.816;12.448;2022-07-23T00:56:54;9.73;;;5.43;;
69253;SDS011;56364;41.816;12.448;2022-07-23T00:59:21;8.60;;;5.50;;
69253;SDS011;56364;41.816;12.448;2022-07-23T01:01:47;10.05;;;5.20;;
69253;SDS011;56364;41.816;12.448;2022-07-23T01:04:14;17.35;;;5.43;;
69253;SDS011;56364;41.816;12.448;2022-07-23T01:06:40;16.08;;;5.47;;
69253;SDS011;56364;41.816;12.448;2022-07-23T01:09:08;10.10;;;5.18;;
69253;SDS011;56364;41.816;12.448;2022-07-23T01:11:34;12.65;;;5.88;;
69253;SDS011;56364;41.816;12.448;2022-07-23T01:14:11;11.52;;;6.10;;
69253;SDS011;56364;41.816;12.448;2022-07-23T01:16:37;11.93;;;6.70;;
69253;SDS011;56364;41.816;12.448;2022-07-23T01:19:03;12.80;;;6.72;;
69253;SDS011;56364;41.816;12.448;2022-07-23T01:21:32;12.80;;;6.13;;
69253;SDS011;56364;41.816;12.448;2022-07-23T01:23:58;16.05;;;6.45;;
69253;SDS011;56364;41.816;12.448;2022-07-23T01:26:24;12.07;;;6.10;;
69253;SDS011;56364;41.816;12.448;2022-07-23T01:31:26;15.50;;;6.40;;
69253;SDS011;56364;41.816;12.448;2022-07-23T01:33:52;12.40;;;6.85;;
69253;SDS011;56364;41.816;12.448;2022-07-23T01:41:29;11.60;;;6.03;;
69253;SDS011;56364;41.816;12.448;2022-07-23T01:43:57;15.35;;;7.35;;
69253;SDS011;56364;41.816;12.448;2022-07-23T01:46:23;15.30;;;6.35;;
69253;SDS011;56364;41.816;12.448;2022-07-23T01:48:50;12.15;;;6.50;;
69253;SDS011;56364;41.816;12.448;2022-07-23T01:51:16;10.43;;;6.13;;
69253;SDS011;56364;41.816;12.448;2022-07-23T01:53:43;11.57;;;6.00;;
69253;SDS011;56364;41.816;12.448;2022-07-23T01:56:12;12.32;;;5.93;;
69253;SDS011;56364;41.816;12.448;2022-07-23T01:58:40;9.80;;;5.85;;
69253;SDS011;56364;41.816;12.448;2022-07-23T02:01:06;17.27;;;6.28;;
69253;SDS011;56364;41.816;12.448;2022-07-23T02:03:32;11.75;;;6.20;;
69253;SDS011;56364;41.816;12.448;2022-07-23T02:05:58;12.52;;;5.90;;
69253;SDS011;56364;41.816;12.448;2022-07-23T02:08:24;10.93;;;6.20;;
69253;SDS011;56364;41.816;12.448;2022-07-23T02:10:50;10.02;;;5.72;;
69253;SDS011;56364;41.816;12.448;2022-07-23T02:13:17;10.95;;;6.00;;
69253;SDS011;56364;41.816;12.448;2022-07-23T02:15:45;13.73;;;6.22;;
69253;SDS011;56364;41.816;12.448;2022-07-23T02:18:11;13.82;;;6.75;;
69253;SDS011;56364;41.816;12.448;2022-07-23T02:20:37;15.38;;;7.13;;
69253;SDS011;56364;41.816;12.448;2022-07-23T02:23:05;18.38;;;6.55;;
69253;SDS011;56364;41.816;12.448;2022-07-23T02:25:32;13.60;;;6.72;;
69253;SDS011;56364;41.816;12.448;2022-07-23T02:27:59;13.13;;;6.72;;
69253;SDS011;56364;41.816;12.448;2022-07-23T02:30:26;11.25;;;6.55;;
69253;SDS011;56364;41.816;12.448;2022-07-23T02:32:52;11.27;;;6.50;;
69253;SDS011;56364;41.816;12.448;2022-07-23T02:35:18;12.45;;;6.40;;
69253;SDS011;56364;41.816;12.448;2022-07-23T02:37:46;14.55;;;6.32;;
69253;SDS011;56364;41.816;12.448;2022-07-23T02:42:48;10.05;;;6.05;;
69253;SDS011;56364;41.816;12.448;2022-07-23T02:45:15;10.30;;;5.72;;
69253;SDS011;56364;41.816;12.448;2022-07-23T02:50:17;9.98;;;6.13;;
69253;SDS011;56364;41.816;12.448;2022-07-23T02:52:45;12.77;;;6.45;;
69253;SDS011;56364;41.816;12.448;2022-07-23T02:55:11;11.50;;;6.40;;
69253;SDS011;56364;41.816;12.448;2022-07-23T02:57:37;11.50;;;5.80;;
69253;SDS011;56364;41.816;12.448;2022-07-23T03:00:04;13.05;;;6.78;;
69253;SDS011;56364;41.816;12.448;2022-07-23T03:02:31;15.45;;;6.28;;
69253;SDS011;56364;41.816;12.448;2022-07-23T03:04:59;17.15;;;6.65;;
69253;SDS011;56364;41.816;12.448;2022-07-23T03:07:26;12.18;;;6.22;;
69253;SDS011;56364;41.816;12.448;2022-07-23T03:09:52;13.77;;;6.38;;
69253;SDS011;56364;41.816;12.448;2022-07-23T03:12:21;10.13;;;5.90;;
69253;SDS011;56364;41.816;12.448;2022-07-23T03:14:47;12.23;;;6.50;;
69253;SDS011;56364;41.816;12.448;2022-07-23T03:17:19;12.38;;;6.07;;
69253;SDS011;56364;41.816;12.448;2022-07-23T03:19:48;12.48;;;6.40;;
69253;SDS011;56364;41.816;12.448;2022-07-23T03:22:14;11.10;;;6.72;;
69253;SDS011;56364;41.816;12.448;2022-07-23T03:24:40;12.50;;;6.45;;
69253;SDS011;56364;41.816;12.448;2022-07-23T03:27:25;11.73;;;6.68;;
69253;SDS011;56364;41.816;12.448;2022-07-23T03:29:52;15.05;;;8.30;;
69253;SDS011;56364;41.816;12.448;2022-07-23T03:32:19;14.45;;;6.82;;
69253;SDS011;56364;41.816;12.448;2022-07-23T03:34:45;14.00;;;6.78;;
69253;SDS011;56364;41.816;12.448;2022-07-23T03:37:11;16.33;;;7.50;;
69253;SDS011;56364;41.816;12.448;2022-07-23T03:39:37;11.77;;;6.45;;
69253;SDS011;56364;41.816;12.448;2022-07-23T03:42:03;12.05;;;6.68;;
69253;SDS011;56364;41.816;12.448;2022-07-23T03:44:29;12.30;;;6.97;;
69253;SDS011;56364;41.816;12.448;2022-07-23T03:46:56;12.23;;;6.50;;
69253;SDS011;56364;41.816;12.448;2022-07-23T03:51:56;10.63;;;6.30;;
69253;SDS011;56364;41.816;12.448;2022-07-23T03:54:22;10.40;;;6.00;;
69253;SDS011;56364;41.816;12.448;2022-07-23T03:56:50;12.93;;;6.97;;
69253;SDS011;56364;41.816;12.448;2022-07-23T04:04:27;10.00;;;5.60;;
69253;SDS011;56364;41.816;12.448;2022-07-23T04:06:55;10.73;;;6.20;;
69253;SDS011;56364;41.816;12.448;2022-07-23T04:09:44;15.00;;;5.60;;
69253;SDS011;56364;41.816;12.448;2022-07-23T04:12:11;13.75;;;7.30;;
69253;SDS011;56364;41.816;12.448;2022-07-23T04:14:37;17.95;;;7.13;;
69253;SDS011;56364;41.816;12.448;2022-07-23T04:17:03;14.63;;;6.68;;
69253;SDS011;56364;41.816;12.448;2022-07-23T04:19:30;13.82;;;7.10;;
69253;SDS011;56364;41.816;12.448;2022-07-23T04:21:56;15.20;;;7.43;;
69253;SDS011;56364;41.816;12.448;2022-07-23T04:24:23;13.55;;;6.93;;
69253;SDS011;56364;41.816;12.448;2022-07-23T04:26:49;22.00;;;7.35;;
69253;SDS011;56364;41.816;12.448;2022-07-23T04:29:16;21.70;;;8.30;;
69253;SDS011;56364;41.816;12.448;2022-07-23T04:31:42;19.77;;;8.25;;
69253;SDS011;56364;41.816;12.448;2022-07-23T04:34:08;19.05;;;8.02;;
69253;SDS011;56364;41.816;12.448;2022-07-23T04:36:34;15.55;;;7.63;;
69253;SDS011;56364;41.816;12.448;2022-07-23T04:39:00;15.88;;;8.32;;
69253;SDS011;56364;41.816;12.448;2022-07-23T04:41:26;19.27;;;8.55;;
69253;SDS011;56364;41.816;12.448;2022-07-23T04:43:53;18.42;;;8.88;;
69253;SDS011;56364;41.816;12.448;2022-07-23T04:46:19;17.88;;;8.95;;
69253;SDS011;56364;41.816;12.448;2022-07-23T04:48:46;15.30;;;7.07;;
69253;SDS011;56364;41.816;12.448;2022-07-23T04:51:12;14.20;;;7.25;;
69253;SDS011;56364;41.816;12.448;2022-07-23T04:53:38;17.65;;;7.70;;
69253;SDS011;56364;41.816;12.448;2022-07-23T04:56:04;14.50;;;6.82;;
69253;SDS011;56364;41.816;12.448;2022-07-23T04:58:31;18.92;;;6.93;;
69253;SDS011;56364;41.816;12.448;2022-07-23T05:00:57;13.95;;;7.13;;
69253;SDS011;56364;41.816;12.448;2022-07-23T05:05:57;14.50;;;6.68;;
69253;SDS011;56364;41.816;12.448;2022-07-23T05:08:32;11.43;;;6.88;;
69253;SDS011;56364;41.816;12.448;2022-07-23T05:11:03;16.73;;;7.45;;
69253;SDS011;56364;41.816;12.448;2022-07-23T05:13:30;10.93;;;6.35;;
69253;SDS011;56364;41.816;12.448;2022-07-23T05:15:56;15.82;;;7.03;;
69253;SDS011;56364;41.816;12.448;2022-07-23T05:18:22;15.27;;;7.13;;
69253;SDS011;56364;41.816;12.448;2022-07-23T05:20:48;13.38;;;6.95;;
69253;SDS011;56364;41.816;12.448;2022-07-23T05:23:14;15.70;;;6.40;;
69253;SDS011;56364;41.816;12.448;2022-07-23T05:25:40;11.93;;;6.18;;
69253;SDS011;56364;41.816;12.448;2022-07-23T05:28:06;13.95;;;6.80;;
69253;SDS011;56364;41.816;12.448;2022-07-23T05:30:33;18.13;;;6.47;;
69253;SDS011;56364;41.816;12.448;2022-07-23T05:32:59;14.70;;;7.13;;
69253;SDS011;56364;41.816;12.448;2022-07-23T05:35:25;15.93;;;6.60;;
69253;SDS011;56364;41.816;12.448;2022-07-23T05:37:51;13.05;;;6.85;;
69253;SDS011;56364;41.816;12.448;2022-07-23T05:40:17;13.18;;;6.18;;
69253;SDS011;56364;41.816;12.448;2022-07-23T05:42:44;15.35;;;5.88;;
69253;SDS011;56364;41.816;12.448;2022-07-23T05:45:11;11.75;;;6.40;;
69253;SDS011;56364;41.816;12.448;2022-07-23T05:47:41;14.48;;;6.10;;
69253;SDS011;56364;41.816;12.448;2022-07-23T05:50:10;11.93;;;5.65;;
69253;SDS011;56364;41.816;12.448;2022-07-23T05:52:37;14.60;;;6.22;;
69253;SDS011;56364;41.816;12.448;2022-07-23T05:55:04;13.32;;;5.70;;
69253;SDS011;56364;41.816;12.448;2022-07-23T05:57:30;10.80;;;6.30;;
69253;SDS011;56364;41.816;12.448;2022-07-23T05:59:56;14.18;;;6.78;;
69253;SDS011;56364;41.816;12.448;2022-07-23T06:02:22;11.10;;;6.20;;
69253;SDS011;56364;41.816;12.448;2022-07-23T06:04:48;10.27;;;6.00;;
69253;SDS011;56364;41.816;12.448;2022-07-23T06:07:15;11.20;;;5.95;;
69253;SDS011;56364;41.816;12.448;2022-07-23T06:09:41;12.20;;;7.15;;
69253;SDS011;56364;41.816;12.448;2022-07-23T06:12:07;11.43;;;6.53;;
69253;SDS011;56364;41.816;12.448;2022-07-23T06:14:33;13.45;;;6.15;;
69253;SDS011;56364;41.816;12.448;2022-07-23T06:16:59;15.52;;;6.28;;
69253;SDS011;56364;41.816;12.448;2022-07-23T06:19:25;10.45;;;6.30;;
69253;SDS011;56364;41.816;12.448;2022-07-23T06:21:51;13.48;;;6.13;;
69253;SDS011;56364;41.816;12.448;2022-07-23T06:24:17;13.15;;;6.22;;
69253;SDS011;56364;41.816;12.448;2022-07-23T06:26:43;11.32;;;6.05;;
69253;SDS011;56364;41.816;12.448;2022-07-23T06:29:10;10.52;;;6.00;;
69253;SDS011;56364;41.816;12.448;2022-07-23T06:31:36;11.77;;;6.75;;
69253;SDS011;56364;41.816;12.448;2022-07-23T06:34:02;10.95;;;6.28;;
69253;SDS011;56364;41.816;12.448;2022-07-23T06:36:28;17.17;;;6.70;;
69253;SDS011;56364;41.816;12.448;2022-07-23T06:38:54;15.27;;;7.03;;
69253;SDS011;56364;41.816;12.448;2022-07-23T06:41:20;15.15;;;7.07;;
69253;SDS011;56364;41.816;12.448;2022-07-23T06:43:47;13.27;;;6.43;;
69253;SDS011;56364;41.816;12.448;2022-07-23T06:46:13;13.73;;;7.13;;
69253;SDS011;56364;41.816;12.448;2022-07-23T06:48:40;11.95;;;6.00;;
69253;SDS011;56364;41.816;12.448;2022-07-23T06:51:06;9.35;;;5.65;;
69253;SDS011;56364;41.816;12.448;2022-07-23T06:53:32;11.82;;;6.78;;
69253;SDS011;56364;41.816;12.448;2022-07-23T06:55:58;10.45;;;5.95;;
69253;SDS011;56364;41.816;12.448;2022-07-23T06:58:24;13.30;;;5.72;;
69253;SDS011;56364;41.816;12.448;2022-07-23T07:00:50;12.25;;;5.90;;
69253;SDS011;56364;41.816;12.448;2022-07-23T07:03:17;9.38;;;6.07;;
69253;SDS011;56364;41.816;12.448;2022-07-23T07:05:43;11.05;;;5.45;;
69253;SDS011;56364;41.816;12.448;2022-07-23T07:08:09;9.57;;;5.43;;
69253;SDS011;56364;41.816;12.448;2022-07-23T07:10:35;10.63;;;5.57;;
69253;SDS011;56364;41.816;12.448;2022-07-23T07:13:02;12.82;;;5.93;;
69253;SDS011;56364;41.816;12.448;2022-07-23T07:15:28;9.48;;;5.35;;
69253;SDS011;56364;41.816;12.448;2022-07-23T07:17:54;11.55;;;6.13;;
69253;SDS011;56364;41.816;12.448;2022-07-23T07:20:20;11.95;;;5.50;;
69253;SDS011;56364;41.816;12.448;2022-07-23T07:22:48;10.48;;;5.45;;
69253;SDS011;56364;41.816;12.448;2022-07-23T07:25:14;10.35;;;4.95;;
69253;SDS011;56364;41.816;12.448;2022-07-23T07:27:41;10.30;;;5.43;;
69253;SDS011;56364;41.816;12.448;2022-07-23T07:30:10;8.98;;;5.35;;
69253;SDS011;56364;41.816;12.448;2022-07-23T07:32:37;8.23;;;4.97;;
69253;SDS011;56364;41.816;12.448;2022-07-23T07:35:03;9.10;;;5.03;;
69253;SDS011;56364;41.816;12.448;2022-07-23T07:37:29;8.68;;;4.60;;
69253;SDS011;56364;41.816;12.448;2022-07-23T07:39:56;11.40;;;4.82;;
69253;SDS011;56364;41.816;12.448;2022-07-23T07:42:22;8.55;;;4.85;;
69253;SDS011;56364;41.816;12.448;2022-07-23T07:44:48;8.95;;;4.80;;
69253;SDS011;56364;41.816;12.448;2022-07-23T07:47:14;11.10;;;5.18;;
69253;SDS011;56364;41.816;12.448;2022-07-23T07:49:43;10.70;;;5.40;;
69253;SDS011;56364;41.816;12.448;2022-07-23T07:52:09;9.98;;;4.72;;
69253;SDS011;56364;41.816;12.448;2022-07-23T07:54:36;10.93;;;4.95;;
69253;SDS011;56364;41.816;12.448;2022-07-23T07:57:05;10.30;;;4.63;;
69253;SDS011;56364;41.816;12.448;2022-07-23T07:59:31;9.90;;;5.97;;
69253;SDS011;56364;41.816;12.448;2022-07-23T08:01:57;9.77;;;4.88;;
69253;SDS011;56364;41.816;12.448;2022-07-23T08:04:24;8.68;;;5.28;;
69253;SDS011;56364;41.816;12.448;2022-07-23T08:06:50;11.20;;;4.97;;
69253;SDS011;56364;41.816;12.448;2022-07-23T08:09:20;7.30;;;4.30;;
69253;SDS011;56364;41.816;12.448;2022-07-23T08:11:49;8.07;;;5.20;;
69253;SDS011;56364;41.816;12.448;2022-07-23T08:14:17;7.97;;;4.35;;
69253;SDS011;56364;41.816;12.448;2022-07-23T08:16:44;8.35;;;4.57;;
69253;SDS011;56364;41.816;12.448;2022-07-23T08:19:10;8.35;;;4.30;;
69253;SDS011;56364;41.816;12.448;2022-07-23T08:21:36;7.88;;;4.60;;
69253;SDS011;56364;41.816;12.448;2022-07-23T08:24:02;11.07;;;4.32;;
69253;SDS011;56364;41.816;12.448;2022-07-23T08:26:28;8.82;;;5.22;;
69253;SDS011;56364;41.816;12.448;2022-07-23T08:28:54;9.68;;;4.85;;
69253;SDS011;56364;41.816;12.448;2022-07-23T08:31:20;9.05;;;4.25;;
69253;SDS011;56364;41.816;12.448;2022-07-23T08:33:46;7.10;;;4.60;;
69253;SDS011;56364;41.816;12.448;2022-07-23T08:36:13;9.35;;;4.60;;
69253;SDS011;56364;41.816;12.448;2022-07-23T08:38:39;13.80;;;5.20;;
69253;SDS011;56364;41.816;12.448;2022-07-23T08:41:05;11.32;;;4.45;;
69253;SDS011;56364;41.816;12.448;2022-07-23T08:43:33;10.00;;;5.10;;
69253;SDS011;56364;41.816;12.448;2022-07-23T08:46:01;7.72;;;4.47;;
69253;SDS011;56364;41.816;12.448;2022-07-23T08:48:29;12.80;;;5.25;;
69253;SDS011;56364;41.816;12.448;2022-07-23T08:50:56;12.43;;;5.00;;
69253;SDS011;56364;41.816;12.448;2022-07-23T08:53:24;9.02;;;5.15;;
69253;SDS011;56364;41.816;12.448;2022-07-23T08:55:51;8.32;;;4.72;;
69253;SDS011;56364;41.816;12.448;2022-07-23T08:58:20;12.27;;;5.50;;
69253;SDS011;56364;41.816;12.448;2022-07-23T09:00:47;12.02;;;4.72;;
69253;SDS011;56364;41.816;12.448;2022-07-23T09:06:13;10.13;;;4.97;;
69253;SDS011;56364;41.816;12.448;2022-07-23T09:08:40;7.90;;;4.47;;
69253;SDS011;56364;41.816;12.448;2022-07-23T09:11:07;10.40;;;4.55;;
69253;SDS011;56364;41.816;12.448;2022-07-23T09:21:07;9.35;;;4.70;;
69253;SDS011;56364;41.816;12.448;2022-07-23T09:23:46;10.80;;;4.85;;
69253;SDS011;56364;41.816;12.448;2022-07-23T09:26:26;10.90;;;5.20;;
69253;SDS011;56364;41.816;12.448;2022-07-23T09:29:11;10.38;;;4.53;;
69253;SDS011;56364;41.816;12.448;2022-07-23T09:31:48;7.60;;;4.88;;
69253;SDS011;56364;41.816;12.448;2022-07-23T09:34:16;9.68;;;5.40;;
69253;SDS011;56364;41.816;12.448;2022-07-23T09:36:42;11.07;;;5.25;;
69253;SDS011;56364;41.816;12.448;2022-07-23T09:39:08;8.98;;;5.50;;
69253;SDS011;56364;41.816;12.448;2022-07-23T09:41:38;8.90;;;4.68;;
69253;SDS011;56364;41.816;12.448;2022-07-23T09:44:09;9.20;;;5.28;;
69253;SDS011;56364;41.816;12.448;2022-07-23T09:46:35;10.45;;;5.53;;
69253;SDS011;56364;41.816;12.448;2022-07-23T09:49:17;10.48;;;5.43;;
69253;SDS011;56364;41.816;12.448;2022-07-23T09:51:51;10.18;;;6.07;;
69253;SDS011;56364;41.816;12.448;2022-07-23T09:56:57;10.80;;;6.43;;
69253;SDS011;56364;41.816;12.448;2022-07-23T09:59:25;10.30;;;6.00;;
69253;SDS011;56364;41.816;12.448;2022-07-23T10:01:52;10.07;;;5.63;;
69253;SDS011;56364;41.816;12.448;2022-07-23T10:04:23;13.55;;;5.88;;
69253;SDS011;56364;41.816;12.448;2022-07-23T10:06:51;10.52;;;5.88;;
69253;SDS011;56364;41.816;12.448;2022-07-23T10:09:21;11.68;;;5.47;;
69253;SDS011;56364;41.816;12.448;2022-07-23T10:11:48;8.60;;;4.88;;
69253;SDS011;56364;41.816;12.448;2022-07-23T10:14:14;12.85;;;5.70;;
69253;SDS011;56364;41.816;12.448;2022-07-23T10:16:42;8.60;;;5.07;;
69253;SDS011;56364;41.816;12.448;2022-07-23T10:19:08;11.30;;;5.18;;
69253;SDS011;56364;41.816;12.448;2022-07-23T10:29:58;8.25;;;4.78;;
69253;SDS011;56364;41.816;12.448;2022-07-23T10:37:41;8.23;;;4.60;;
69253;SDS011;56364;41.816;12.448;2022-07-23T10:42:35;10.02;;;4.15;;
69253;SDS011;56364;41.816;12.448;2022-07-23T10:45:01;10.23;;;4.57;;
69253;SDS011;56364;41.816;12.448;2022-07-23T10:47:47;6.93;;;4.00;;
69253;SDS011;56364;41.816;12.448;2022-07-23T10:57:56;9.07;;;4.75;;
69253;SDS011;56364;41.816;12.448;2022-07-23T11:00:23;6.80;;;3.70;;
69253;SDS011;56364;41.816;12.448;2022-07-23T11:02:50;13.00;;;4.15;;
69253;SDS011;56364;41.816;12.448;2022-07-23T11:05:24;6.55;;;4.05;;
69253;SDS011;56364;41.816;12.448;2022-07-23T11:10:41;9.68;;;4.35;;
69253;SDS011;56364;41.816;12.448;2022-07-23T11:34:50;11.73;;;4.10;;
69253;SDS011;56364;41.816;12.448;2022-07-23T11:37:32;7.90;;;4.07;;
69253;SDS011;56364;41.816;12.448;2022-07-23T11:39:59;7.55;;;4.57;;
69253;SDS011;56364;41.816;12.448;2022-07-23T11:45:01;6.10;;;3.60;;
69253;SDS011;56364;41.816;12.448;2022-07-23T11:47:27;5.88;;;3.72;;
69253;SDS011;56364;41.816;12.448;2022-07-23T11:50:00;8.35;;;3.67;;
69253;SDS011;56364;41.816;12.448;2022-07-23T11:52:27;6.50;;;3.63;;
69253;SDS011;56364;41.816;12.448;2022-07-23T11:54:55;8.95;;;4.22;;
69253;SDS011;56364;41.816;12.448;2022-07-23T11:57:26;5.28;;;3.08;;
69253;SDS011;56364;41.816;12.448;2022-07-23T11:59:54;7.72;;;4.57;;
69253;SDS011;56364;41.816;12.448;2022-07-23T12:02:21;9.85;;;4.25;;
69253;SDS011;56364;41.816;12.448;2022-07-23T12:04:48;6.72;;;4.18;;
69253;SDS011;56364;41.816;12.448;2022-07-23T12:07:34;5.63;;;3.33;;
69253;SDS011;56364;41.816;12.448;2022-07-23T12:10:01;6.75;;;3.60;;
69253;SDS011;56364;41.816;12.448;2022-07-23T12:12:35;7.03;;;3.42;;
69253;SDS011;56364;41.816;12.448;2022-07-23T12:15:01;7.00;;;3.47;;
69253;SDS011;56364;41.816;12.448;2022-07-23T12:17:28;6.10;;;3.53;;
69253;SDS011;56364;41.816;12.448;2022-07-23T12:19:55;6.85;;;3.40;;
69253;SDS011;56364;41.816;12.448;2022-07-23T12:22:23;4.95;;;2.88;;
69253;SDS011;56364;41.816;12.448;2022-07-23T12:24:53;9.93;;;3.55;;
69253;SDS011;56364;41.816;12.448;2022-07-23T12:27:22;5.80;;;3.53;;
69253;SDS011;56364;41.816;12.448;2022-07-23T12:29:48;6.95;;;3.90;;
69253;SDS011;56364;41.816;12.448;2022-07-23T12:34:48;7.13;;;3.65;;
69253;SDS011;56364;41.816;12.448;2022-07-23T12:37:28;6.00;;;3.53;;
69253;SDS011;56364;41.816;12.448;2022-07-23T12:39:54;9.57;;;3.78;;
69253;SDS011;56364;41.816;12.448;2022-07-23T12:42:20;7.68;;;3.80;;
69253;SDS011;56364;41.816;12.448;2022-07-23T12:45:06;7.00;;;3.97;;
69253;SDS011;56364;41.816;12.448;2022-07-23T12:50:32;6.50;;;3.10;;
69253;SDS011;56364;41.816;12.448;2022-07-23T12:55:28;7.40;;;2.95;;
69253;SDS011;56364;41.816;12.448;2022-07-23T12:58:03;6.80;;;3.10;;
69253;SDS011;56364;41.816;12.448;2022-07-23T13:00:32;4.85;;;2.90;;
69253;SDS011;56364;41.816;12.448;2022-07-23T13:02:58;4.60;;;2.92;;
69253;SDS011;56364;41.816;12.448;2022-07-23T13:05:26;7.47;;;2.88;;
69253;SDS011;56364;41.816;12.448;2022-07-23T13:07:55;4.88;;;3.35;;
69253;SDS011;56364;41.816;12.448;2022-07-23T13:10:21;9.88;;;2.95;;
69253;SDS011;56364;41.816;12.448;2022-07-23T13:12:47;5.63;;;3.38;;
69253;SDS011;56364;41.816;12.448;2022-07-23T13:15:15;9.25;;;3.35;;
69253;SDS011;56364;41.816;12.448;2022-07-23T13:17:41;8.38;;;3.30;;
69253;SDS011;56364;41.816;12.448;2022-07-23T13:20:09;6.63;;;3.28;;
69253;SDS011;56364;41.816;12.448;2022-07-23T13:22:35;6.07;;;3.30;;
69253;SDS011;56364;41.816;12.448;2022-07-23T13:25:01;5.53;;;3.40;;
69253;SDS011;56364;41.816;12.448;2022-07-23T13:27:28;5.80;;;3.33;;
69253;SDS011;56364;41.816;12.448;2022-07-23T13:29:54;9.30;;;3.15;;
69253;SDS011;56364;41.816;12.448;2022-07-23T13:32:20;5.30;;;3.35;;
69253;SDS011;56364;41.816;12.448;2022-07-23T13:34:46;7.32;;;3.03;;
69253;SDS011;56364;41.816;12.448;2022-07-23T13:37:12;7.43;;;3.42;;
69253;SDS011;56364;41.816;12.448;2022-07-23T13:39:38;6.95;;;2.88;;
69253;SDS011;56364;41.816;12.448;2022-07-23T13:42:04;5.97;;;3.47;;
69253;SDS011;56364;41.816;12.448;2022-07-23T13:44:30;4.63;;;2.90;;
69253;SDS011;56364;41.816;12.448;2022-07-23T13:47:02;7.07;;;3.10;;
69253;SDS011;56364;41.816;12.448;2022-07-23T13:49:29;5.45;;;3.22;;
69253;SDS011;56364;41.816;12.448;2022-07-23T13:51:55;5.28;;;3.13;;
69253;SDS011;56364;41.816;12.448;2022-07-23T13:54:23;5.78;;;2.65;;
69253;SDS011;56364;41.816;12.448;2022-07-23T13:56:49;5.72;;;3.03;;
69253;SDS011;56364;41.816;12.448;2022-07-23T13:59:15;6.07;;;3.30;;
69253;SDS011;56364;41.816;12.448;2022-07-23T14:01:41;6.85;;;3.13;;
69253;SDS011;56364;41.816;12.448;2022-07-23T14:04:07;7.43;;;3.60;;
69253;SDS011;56364;41.816;12.448;2022-07-23T14:06:33;10.02;;;3.67;;
69253;SDS011;56364;41.816;12.448;2022-07-23T14:08:59;6.70;;;3.33;;
69253;SDS011;56364;41.816;12.448;2022-07-23T14:11:25;8.77;;;3.38;;
69253;SDS011;56364;41.816;12.448;2022-07-23T14:13:53;5.85;;;3.03;;
69253;SDS011;56364;41.816;12.448;2022-07-23T14:16:20;7.38;;;3.20;;
69253;SDS011;56364;41.816;12.448;2022-07-23T14:18:46;5.65;;;3.28;;
69253;SDS011;56364;41.816;12.448;2022-07-23T14:21:12;10.13;;;3.17;;
69253;SDS011;56364;41.816;12.448;2022-07-23T14:23:38;5.53;;;2.95;;
69253;SDS011;56364;41.816;12.448;2022-07-23T14:26:04;8.55;;;3.78;;
69253;SDS011;56364;41.816;12.448;2022-07-23T14:28:32;5.25;;;3.65;;
69253;SDS011;56364;41.816;12.448;2022-07-23T14:30:58;5.25;;;3.47;;
69253;SDS011;56364;41.816;12.448;2022-07-23T14:33:24;6.25;;;3.30;;
69253;SDS011;56364;41.816;12.448;2022-07-23T14:35:50;5.50;;;3.10;;
69253;SDS011;56364;41.816;12.448;2022-07-23T14:38:16;7.88;;;3.10;;
69253;SDS011;56364;41.816;12.448;2022-07-23T14:40:43;7.07;;;3.08;;
69253;SDS011;56364;41.816;12.448;2022-07-23T14:43:09;9.48;;;4.05;;
69253;SDS011;56364;41.816;12.448;2022-07-23T14:45:35;11.63;;;3.72;;
69253;SDS011;56364;41.816;12.448;2022-07-23T14:48:04;6.55;;;3.50;;
69253;SDS011;56364;41.816;12.448;2022-07-23T14:50:31;9.25;;;3.85;;
69253;SDS011;56364;41.816;12.448;2022-07-23T14:52:57;8.13;;;3.65;;
69253;SDS011;56364;41.816;12.448;2022-07-23T14:55:23;5.97;;;4.20;;
69253;SDS011;56364;41.816;12.448;2022-07-23T14:57:49;6.30;;;3.58;;
69253;SDS011;56364;41.816;12.448;2022-07-23T15:00:15;5.10;;;3.17;;
69253;SDS011;56364;41.816;12.448;2022-07-23T15:02:41;7.82;;;4.03;;
69253;SDS011;56364;41.816;12.448;2022-07-23T15:05:08;8.45;;;4.18;;
69253;SDS011;56364;41.816;12.448;2022-07-23T15:07:34;4.72;;;3.22;;
69253;SDS011;56364;41.816;12.448;2022-07-23T15:10:00;6.80;;;3.30;;
69253;SDS011;56364;41.816;12.448;2022-07-23T15:12:26;8.50;;;3.88;;
69253;SDS011;56364;41.816;12.448;2022-07-23T15:14:53;6.63;;;3.55;;
69253;SDS011;56364;41.816;12.448;2022-07-23T15:17:19;6.00;;;3.38;;
69253;SDS011;56364;41.816;12.448;2022-07-23T15:19:45;6.53;;;3.38;;
69253;SDS011;56364;41.816;12.448;2022-07-23T15:22:11;10.77;;;3.53;;
69253;SDS011;56364;41.816;12.448;2022-07-23T15:24:37;7.13;;;3.38;;
69253;SDS011;56364;41.816;12.448;2022-07-23T15:27:03;7.68;;;3.50;;
69253;SDS011;56364;41.816;12.448;2022-07-23T15:29:29;6.05;;;3.08;;
69253;SDS011;56364;41.816;12.448;2022-07-23T15:31:55;9.25;;;3.38;;
69253;SDS011;56364;41.816;12.448;2022-07-23T15:34:21;5.95;;;3.45;;
69253;SDS011;56364;41.816;12.448;2022-07-23T15:36:47;8.13;;;3.70;;
69253;SDS011;56364;41.816;12.448;2022-07-23T15:39:16;4.47;;;3.63;;
69253;SDS011;56364;41.816;12.448;2022-07-23T15:44:18;7.50;;;3.55;;
69253;SDS011;56364;41.816;12.448;2022-07-23T15:46:44;8.18;;;3.33;;
69253;SDS011;56364;41.816;12.448;2022-07-23T15:49:12;9.95;;;3.28;;
69253;SDS011;56364;41.816;12.448;2022-07-23T15:51:39;8.30;;;3.47;;
69253;SDS011;56364;41.816;12.448;2022-07-23T15:54:05;7.22;;;4.05;;
69253;SDS011;56364;41.816;12.448;2022-07-23T15:56:31;6.78;;;3.40;;
69253;SDS011;56364;41.816;12.448;2022-07-23T15:58:57;5.95;;;3.20;;
69253;SDS011;56364;41.816;12.448;2022-07-23T16:01:23;6.50;;;3.40;;
69253;SDS011;56364;41.816;12.448;2022-07-23T16:03:49;7.30;;;3.35;;